inta.org alexa rank chart, inta.org alexa rank daily changes

inta.org alexa rank chart, inta.org alexa rank daily changes

inta.org
Actual rank:
212 421

RANK HISTORY

Date Rank Diff
2018/10/18 212 421 -9 741
2018/10/17 222 162 -441 778
2018/10/16 663 940 +392 828
2018/10/15 271 112 +102 501
2018/10/14 168 611 -313 552
2018/10/13 482 163 +295 123
2018/10/12 187 040 -42 907
2018/10/11 229 947 -723 137
2018/10/10 953 084 +740 797
2018/10/09 212 287 -8 641
2018/10/08 220 928 +82 072
2018/10/07 138 856 -93 139
2018/10/06 231 995 +106 460
2018/10/05 125 535 -69 456
2018/10/04 194 991 +55 364
2018/10/03 139 627 -463 077
2018/10/02 602 704 +260 743
2018/10/01 341 961 +234 540
2018/09/30 107 421 -81 954
2018/09/29 189 375 +33 382
2018/09/28 155 993 +56 012
2018/09/27 99 981 -22 905
2018/09/26 122 886 -334 416
2018/09/25 457 302 -195 016
2018/09/24 652 318 +531 403
2018/09/23 120 915 -77 448
2018/09/22 198 363 -4 468
2018/09/21 202 831 -25 672
2018/09/20 228 503 +134 117
2018/09/19 94 386 -886 230
2018/09/18 980 616 +449 698
2018/09/17 530 918 +157 260
2018/09/16 373 658 +178 147
2018/09/15 195 511 +9 504
2018/09/14 186 007 -86 672
2018/09/13 272 679 +137 504
2018/09/12 135 175 -453 680
2018/09/11 588 855 +329 719
2018/09/10 259 136 -22 448
2018/09/09 281 584 +124 669
2018/09/08 156 915 -24 810
2018/09/06 181 725 -214 916
2018/09/04 396 641 -158 857
2018/09/02 555 498 +258 284
2018/09/01 297 214 +84 900
2018/08/31 212 314 +29 654
2018/08/30 182 660 -103 411
2018/08/29 286 071 +22 352
2018/08/28 263 719 -54 903
2018/08/26 318 622 -138 440
2018/08/25 457 062 +339 472
2018/08/24 117 590 -66 665
2018/08/23 184 255 -336 396
2018/08/22 520 651 +194 086
2018/08/21 326 565 -657 067
2018/08/20 983 632 +568 463
2018/08/19 415 169

WIDGET FOR YOUR SITE

DOMAINS WITH THE NEAREST RANK

Domain Rank
gmoanswers.com 212 416
fm1.co.il 212 417
kuracloud.com 212 418
viser.edu.rs 212 419
upn.mx 212 420
inta.org 212 421
nigeriamasterweb.com 212 422
universalkids.com 212 423
wikifoundry.com 212 424
zipzip.ru 212 425
guidesmartphone.net 212 426

DOMAINS WITH THE NEAREST RANK BY TLD .org

Domain Rank
ubuntuupdates.org 212 376
worldwidewords.org 212 395
casact.org 212 398
iplogger.org 212 403
durga-puja.org 212 406
inta.org 212 421
biialab.org 212 449
krytykal.org 212 455
stroke.org 212 470
seatemperature.org 212 471
political-encyclopedia.org 212 474